Terminal Aerodrome Forecast
Issued by NWS Cleveland, OH

Home | Current Version | Previous Version | Text Only | Print | Product List | Glossary On
Versions: 1 2 3 4 5 6 7 8 9 10 11 12 13 14 15 16 17 18
000
FTUS41 KCLE 052300 CCA
TAFYNG
TAF COR
KYNG 052354Z 0600/0624 30004KT 6SM HZ FEW008 SCT025 OVC080
      TEMPO 0600/0602 BKN008 OVC090
     FM060300 VRB04KT 4SM BR BKN025 OVC035
      TEMPO 0609/0613 2SM BR
     FM061600 27005KT 5SM HZ BKN045=

USA.gov is the U.S. government's official web portal to all federal, state and local government web resources and services.